Time;durP1;ratioP1;P1;durP2;ratioP2;P2;SDS_P1;SDS_P2;PMS_P1;PMS_P2;Temp;Humidity;BMP_temperature;BMP_pressure;BME280_temperature;BME280_humidity;BME280_pressure;Samples;Min_cycle;Max_cycle;Signal;HPM_P1;HPM_P2
2021/06/14 00:00:36;;;;;;;4.57;1.97;;;;;;;13.92;60.48;100232.44;4900112;29;20049;-65
2021/06/14 00:03:05;;;;;;;4.28;1.77;;;;;;;13.99;60.62;100236.66;4899835;29;20304;-66
2021/06/14 00:05:38;;;;;;;6.90;2.10;;;;;;;13.96;60.63;100236.72;4900295;29;20052;-65
2021/06/14 00:08:09;;;;;;;5.35;2.10;;;;;;;13.92;60.74;100243.56;4900009;29;20059;-63
2021/06/14 00:10:39;;;;;;;6.93;2.08;;;;;;;13.90;61.13;100239.28;4899919;29;20056;-65
2021/06/14 00:13:10;;;;;;;5.85;1.80;;;;;;;13.92;61.23;100235.88;4899870;29;20068;-64
2021/06/14 00:15:40;;;;;;;4.50;1.90;;;;;;;13.93;61.23;100224.75;4899890;29;20139;-64
2021/06/14 00:18:10;;;;;;;5.55;2.17;;;;;;;13.93;61.06;100223.88;4900033;29;20057;-64
2021/06/14 00:20:42;;;;;;;5.07;2.00;;;;;;;13.88;61.30;100220.50;4899748;29;20491;-63
2021/06/14 00:23:13;;;;;;;4.57;1.85;;;;;;;13.85;61.46;100215.38;4899339;29;20399;-65
2021/06/14 00:25:42;;;;;;;5.50;2.00;;;;;;;13.85;61.45;100216.22;4899192;29;20054;-66
2021/06/14 00:28:19;;;;;;;4.22;2.03;;;;;;;13.85;61.33;100215.38;4899640;29;20455;-64
2021/06/14 00:30:50;;;;;;;7.22;2.25;;;;;;;13.83;61.49;100211.97;4899756;29;20080;-64
2021/06/14 00:33:22;;;;;;;4.90;1.88;;;;;;;13.85;61.71;100215.38;4899546;29;20053;-65
2021/06/14 00:35:53;;;;;;;7.72;2.47;;;;;;;13.86;61.68;100227.34;4899568;29;20052;-66
2021/06/14 00:38:23;;;;;;;5.28;1.80;;;;;;;13.87;61.70;100218.78;4899687;29;20060;-64
2021/06/14 00:40:52;;;;;;;4.85;1.98;;;;;;;13.86;61.46;100212.81;4899326;29;20396;-63
2021/06/14 00:43:22;;;;;;;4.93;2.10;;;;;;;13.91;61.56;100216.22;4899316;29;20072;-64
2021/06/14 00:45:53;;;;;;;6.45;2.05;;;;;;;13.86;61.63;100217.09;4899475;29;20076;-63
2021/06/14 00:48:22;;;;;;;8.43;2.40;;;;;;;13.84;61.80;100221.38;4882568;29;20053;-64
2021/06/14 00:50:57;;;;;;;8.75;2.45;;;;;;;13.78;62.02;100223.97;4898012;29;20053;-64
2021/06/14 00:53:30;;;;;;;3.55;1.92;;;;;;;13.82;62.10;100220.53;4899202;29;20064;-63
2021/06/14 00:56:00;;;;;;;8.70;2.40;;;;;;;13.81;62.15;100217.13;4897996;29;20051;-65
2021/06/14 00:58:33;;;;;;;4.75;2.00;;;;;;;13.82;62.18;100210.28;4899068;29;20049;-65
2021/06/14 01:01:04;;;;;;;6.28;2.22;;;;;;;13.83;62.24;100211.97;4897864;29;20048;-64
2021/06/14 01:03:34;;;;;;;4.10;1.92;;;;;;;13.83;62.26;100201.69;4897583;29;20056;-64
2021/06/14 01:06:07;;;;;;;6.40;2.58;;;;;;;13.78;62.55;100201.72;4898740;29;20045;-65
2021/06/14 01:08:41;;;;;;;5.00;1.98;;;;;;;13.71;62.85;100196.63;4899244;29;20410;-65
2021/06/14 01:11:13;;;;;;;6.13;1.80;;;;;;;13.72;62.71;100198.34;4899101;29;20443;-64
2021/06/14 01:13:54;;;;;;;5.18;2.30;;;;;;;13.72;62.79;100201.78;4898890;29;20064;-64
2021/06/14 01:16:32;;;;;;;3.97;2.10;;;;;;;13.69;62.66;100203.50;4898694;29;20060;-65
2021/06/14 01:19:10;;;;;;;6.05;2.28;;;;;;;13.62;62.97;100201.81;4898812;29;20131;-66
2021/06/14 01:21:47;;;;;;;6.33;2.30;;;;;;;13.52;63.49;100210.41;4899089;29;20055;-64
2021/06/14 01:24:36;;;;;;;4.55;1.90;;;;;;;13.52;63.80;100205.28;4898692;29;20131;-63
2021/06/14 01:27:30;;;;;;;6.78;2.05;;;;;;;13.58;63.89;100184.75;4897546;29;20045;-63
2021/06/14 01:30:00;;;;;;;4.57;2.05;;;;;;;13.60;63.64;100188.16;4898661;29;20059;-64
2021/06/14 01:32:30;;;;;;;5.07;1.95;;;;;;;13.55;63.62;100184.75;4898551;29;20408;-64
2021/06/14 01:35:00;;;;;;;5.25;2.10;;;;;;;13.59;63.53;100186.44;4897370;29;20052;-64
2021/06/14 01:37:30;;;;;;;5.43;2.20;;;;;;;13.61;63.25;100179.56;4898844;29;20052;-64
2021/06/14 01:40:00;;;;;;;4.90;2.10;;;;;;;13.60;63.70;100188.16;4898561;29;20108;-64
2021/06/14 01:42:35;;;;;;;5.93;2.15;;;;;;;13.48;63.95;100193.34;4881910;29;20495;-64
2021/06/14 01:45:07;;;;;;;5.18;2.08;;;;;;;13.53;63.97;100195.03;4881805;29;20063;-64
2021/06/14 01:47:37;;;;;;;6.13;2.53;;;;;;;13.58;63.97;100195.00;4881784;29;20053;-65
2021/06/14 01:50:07;;;;;;;6.80;2.45;;;;;;;13.39;64.49;100202.75;4897302;29;20052;-64
2021/06/14 01:52:37;;;;;;;7.65;2.40;;;;;;;13.27;64.89;100197.66;4897259;29;20124;-65
2021/06/14 01:55:09;;;;;;;5.65;1.92;;;;;;;13.36;65.17;100194.25;4898482;29;20484;-65
2021/06/14 01:57:48;;;;;;;4.20;2.00;;;;;;;13.42;64.84;100200.19;4881845;29;20055;-64
2021/06/14 02:00:29;;;;;;;5.28;2.47;;;;;;;13.22;65.22;100189.13;4898448;29;20586;-65
2021/06/14 02:03:20;;;;;;;5.95;2.15;;;;;;;12.97;65.87;100202.88;4881866;29;20068;-66
2021/06/14 02:05:56;;;;;;;5.05;2.30;;;;;;;12.83;66.51;100199.47;4881915;29;20056;-64
2021/06/14 02:08:28;;;;;;;4.47;2.17;;;;;;;12.70;66.84;100187.53;4898240;29;20052;-64
2021/06/14 02:10:59;;;;;;;4.88;2.25;;;;;;;12.53;67.38;100176.44;4898233;29;20392;-65
2021/06/14 02:13:32;;;;;;;6.07;2.70;;;;;;;12.76;67.39;100190.91;4897437;29;20483;-63
2021/06/14 02:16:08;;;;;;;4.60;2.40;;;;;;;12.75;67.17;100186.69;4881906;29;20108;-65
2021/06/14 02:18:38;;;;;;;5.00;2.88;;;;;;;12.83;67.30;100181.53;4898159;29;20392;-64
2021/06/14 02:21:14;;;;;;;6.68;2.40;;;;;;;12.94;66.82;100186.63;4897131;29;20468;-64
2021/06/14 02:23:43;;;;;;;5.03;2.30;;;;;;;12.94;67.13;100178.94;4898140;29;20140;-63
2021/06/14 02:26:12;;;;;;;6.28;2.25;;;;;;;12.96;67.04;100188.34;4897148;29;20104;-64
2021/06/14 02:28:44;;;;;;;;;;;;;;;12.97;66.99;100182.38;4881818;29;20056;-66
2021/06/14 02:31:14;;;;;;;6.70;2.35;;;;;;;12.98;67.04;100176.38;4898057;29;19966;-64
2021/06/14 02:33:44;;;;;;;4.68;2.20;;;;;;;13.01;66.72;100173.81;4896967;29;20533;-63
2021/06/14 02:36:16;;;;;;;6.18;2.20;;;;;;;13.02;67.02;100172.97;4898043;29;20064;-64
2021/06/14 02:38:47;;;;;;;10.55;2.88;;;;;;;13.07;66.82;100173.84;4898289;29;20061;-66
2021/06/14 02:41:21;;;;;;;6.80;2.80;;;;;;;13.06;66.83;100169.56;4881390;29;20072;-63
2021/06/14 02:43:56;;;;;;;5.43;2.55;;;;;;;13.07;66.54;100161.03;4898340;29;20143;-66
2021/06/14 02:46:27;;;;;;;6.18;2.70;;;;;;;13.11;66.66;100165.28;4898008;29;20052;-63
2021/06/14 02:48:57;;;;;;;6.38;2.47;;;;;;;13.16;66.56;100160.97;4884485;29;20495;-64
2021/06/14 02:51:26;;;;;;;4.05;2.15;;;;;;;13.17;66.60;100152.41;4901289;29;20048;-67
2021/06/14 02:56:42;;;;;;;7.35;2.47;;;;;;;13.25;66.10;100149.84;4901327;29;20056;-65
2021/06/14 02:59:16;;;;;;;5.65;2.40;;;;;;;13.27;66.24;100158.34;4901201;29;20475;-65
2021/06/14 03:01:48;;;;;;;6.32;2.30;;;;;;;13.27;66.08;100153.22;4901269;29;20442;-65
2021/06/14 03:04:20;;;;;;;10.45;2.80;;;;;;;13.29;66.12;100144.69;4881094;29;20084;-64
2021/06/14 03:06:52;;;;;;;8.70;2.53;;;;;;;13.32;65.91;100147.25;4881315;29;20057;-65
2021/06/14 03:09:26;;;;;;;9.77;2.53;;;;;;;13.34;65.81;100150.63;4882628;29;20068;-64
2021/06/14 03:11:57;;;;;;;9.18;3.03;;;;;;;13.34;66.04;100154.94;4896694;29;20131;-65
2021/06/14 03:14:31;;;;;;;7.63;2.70;;;;;;;13.34;66.05;100147.25;4896657;29;20056;-64
2021/06/14 03:17:00;;;;;;;15.35;3.70;;;;;;;13.38;66.10;100154.91;4882539;29;20049;-67
2021/06/14 03:19:31;;;;;;;8.55;3.05;;;;;;;13.43;66.01;100150.63;4896537;29;20049;-64
2021/06/14 03:22:09;;;;;;;6.78;2.30;;;;;;;13.47;65.97;100155.72;4882425;29;20053;-63
2021/06/14 03:24:40;;;;;;;8.80;2.47;;;;;;;13.52;65.89;100156.53;4882126;29;20053;-63
2021/06/14 03:27:11;;;;;;;7.40;2.42;;;;;;;13.55;66.09;100159.97;4882063;29;20056;-63
2021/06/14 03:29:43;;;;;;;5.85;2.35;;;;;;;13.63;65.78;100168.44;4882094;29;20056;-65
2021/06/14 03:32:13;;;;;;;7.03;2.13;;;;;;;13.64;65.62;100165.03;4881944;29;20080;-66
2021/06/14 03:34:44;;;;;;;4.50;2.33;;;;;;;13.70;65.71;100164.16;4882375;29;20048;-65
2021/06/14 03:37:13;;;;;;;5.68;2.20;;;;;;;13.74;65.51;100166.69;4896606;29;20088;-65
2021/06/14 03:39:42;;;;;;;7.63;2.20;;;;;;;13.82;65.43;100169.22;4881786;29;20076;-64
2021/06/14 03:42:16;;;;;;;4.57;2.08;;;;;;;13.89;65.44;100170.88;4881853;29;20052;-65
2021/06/14 03:44:47;;;;;;;7.90;2.10;;;;;;;13.97;65.37;100169.97;4881773;29;20064;-64
2021/06/14 03:47:16;;;;;;;6.15;2.28;;;;;;;14.00;65.17;100174.22;4881983;29;20104;-66
2021/06/14 03:49:45;;;;;;;4.67;2.40;;;;;;;14.06;65.32;100167.31;4881893;29;20400;-66
2021/06/14 03:52:14;;;;;;;6.30;2.77;;;;;;;14.17;65.36;100172.41;4881590;29;20083;-65
2021/06/14 03:54:43;;;;;;;5.55;2.50;;;;;;;14.25;64.69;100180.06;4881570;29;20105;-66
2021/06/14 03:57:12;;;;;;;7.13;2.23;;;;;;;14.28;64.78;100170.59;4881518;29;20085;-64
2021/06/14 03:59:41;;;;;;;8.65;3.17;;;;;;;14.34;65.11;100168.03;4881103;29;20069;-64
2021/06/14 04:02:12;;;;;;;7.40;2.33;;;;;;;14.47;64.76;100169.59;4881412;29;20101;-64
2021/06/14 04:04:44;;;;;;;8.07;2.67;;;;;;;14.58;64.37;100165.25;4893979;29;20052;-64
2021/06/14 04:07:24;;;;;;;7.88;3.38;;;;;;;14.70;63.95;100165.13;4900215;29;20053;-62
2021/06/14 04:09:58;;;;;;;9.48;2.85;;;;;;;14.73;64.10;100165.06;4899874;29;20052;-64
2021/06/14 04:12:28;;;;;;;7.75;2.83;;;;;;;14.82;63.72;100155.59;4900403;29;20058;-64
2021/06/14 04:14:57;;;;;;;7.43;2.50;;;;;;;14.93;63.61;100157.16;4899898;29;20108;-66
2021/06/14 04:17:29;;;;;;;9.25;3.05;;;;;;;15.06;63.15;100158.75;4900125;29;20487;-66
2021/06/14 04:19:58;;;;;;;10.38;2.92;;;;;;;15.15;63.07;100157.78;4883040;29;20056;-63
2021/06/14 04:22:27;;;;;;;7.25;2.80;;;;;;;15.27;62.65;100162.78;4899722;29;20052;-63
2021/06/14 04:24:56;;;;;;;7.75;3.08;;;;;;;15.37;62.73;100154.94;4882939;29;20143;-65
2021/06/14 04:27:25;;;;;;;8.82;3.45;;;;;;;15.53;62.62;100165.91;4899550;29;20059;-66
2021/06/14 04:29:54;;;;;;;9.70;3.38;;;;;;;15.73;62.16;100163.94;4899549;29;20052;-66
2021/06/14 04:32:24;;;;;;;8.80;3.22;;;;;;;15.88;61.50;100168.84;4899498;29;20078;-65
2021/06/14 04:34:55;;;;;;;;;;;;;;;16.05;60.74;100177.19;4900166;29;20100;-65
2021/06/14 04:37:24;;;;;;;22.00;5.10;;;;;;;16.13;60.59;100179.63;4899554;29;19924;-66
2021/06/14 04:39:53;;;;;;;7.85;3.10;;;;;;;16.31;60.39;100168.22;4899295;29;20052;-61
2021/06/14 04:42:22;;;;;;;12.52;3.70;;;;;;;16.48;60.04;100166.22;4899326;29;20064;-62
2021/06/14 04:44:51;;;;;;;8.43;2.47;;;;;;;16.67;59.21;100172.78;4899291;29;20096;-64
2021/06/14 04:47:20;;;;;;;13.05;3.42;;;;;;;16.78;58.78;100176.00;4899240;29;20049;-62
2021/06/14 04:49:49;;;;;;;8.43;3.03;;;;;;;16.78;58.16;100181.16;4899190;29;20064;-63
2021/06/14 04:52:20;;;;;;;7.00;2.58;;;;;;;16.90;58.26;100178.38;4898959;29;20041;-66
2021/06/14 04:54:49;;;;;;;6.70;2.92;;;;;;;17.13;57.80;100171.03;4899159;29;20055;-66
2021/06/14 04:57:18;;;;;;;6.63;2.77;;;;;;;17.20;57.61;100175.19;4899312;29;20083;-65
2021/06/14 04:59:47;;;;;;;6.15;3.05;;;;;;;17.28;57.44;100183.63;4899287;29;20525;-61
2021/06/14 05:02:16;;;;;;;10.85;3.50;;;;;;;17.39;56.96;100176.56;4899507;29;20049;-63
2021/06/14 05:04:45;;;;;;;5.10;2.53;;;;;;;17.52;56.86;100176.31;4899540;29;20061;-65
2021/06/14 05:07:14;;;;;;;6.35;3.10;;;;;;;17.61;56.59;100176.13;4917846;29;20052;-62
2021/06/14 05:09:44;;;;;;;10.48;3.58;;;;;;;17.70;56.13;100168.19;4917569;29;20071;-64
2021/06/14 05:12:13;;;;;;;6.78;3.13;;;;;;;17.83;56.10;100172.16;4917662;29;20135;-62
2021/06/14 05:14:48;;;;;;;6.10;3.00;;;;;;;17.94;55.57;100172.81;4917749;29;20055;-63
2021/06/14 05:17:18;;;;;;;9.35;3.72;;;;;;;18.06;55.48;100175.09;4917952;29;20056;-65
2021/06/14 05:19:47;;;;;;;7.10;3.00;;;;;;;18.01;55.17;100164.03;4917654;29;20131;-63
2021/06/14 05:22:16;;;;;;;5.75;2.90;;;;;;;18.14;54.88;100174.94;4917577;29;20060;-62
2021/06/14 05:24:47;;;;;;;5.93;2.90;;;;;;;18.21;54.81;100172.13;4917558;29;20047;-63
2021/06/14 05:27:16;;;;;;;6.88;3.05;;;;;;;18.34;54.25;100170.13;4917544;29;20125;-65
2021/06/14 05:29:45;;;;;;;9.82;3.22;;;;;;;18.35;53.80;100162.34;4917489;29;20182;-62
2021/06/14 05:32:14;;;;;;;6.80;2.88;;;;;;;18.52;53.93;100160.19;4917421;29;20458;-66
2021/06/14 05:34:44;;;;;;;9.63;3.47;;;;;;;18.62;53.46;100166.84;4917432;29;20056;-65
2021/06/14 05:37:13;;;;;;;6.03;2.90;;;;;;;18.69;53.38;100168.38;4917472;29;20068;-60
2021/06/14 05:39:42;;;;;;;6.30;2.90;;;;;;;18.67;53.41;100170.16;4917391;29;20103;-64
2021/06/14 05:42:12;;;;;;;7.88;2.90;;;;;;;18.70;53.52;100170.09;4917596;29;20051;-61
2021/06/14 05:44:41;;;;;;;5.57;2.75;;;;;;;18.71;52.88;100171.75;4917690;29;20068;-60
2021/06/14 05:47:10;;;;;;;5.97;2.80;;;;;;;18.79;52.43;100168.97;4917337;29;20099;-64
2021/06/14 05:49:39;;;;;;;6.30;3.28;;;;;;;18.83;51.92;100174.94;4917349;29;20064;-64
2021/06/14 05:52:09;;;;;;;9.17;3.33;;;;;;;18.78;51.75;100159.53;4917140;29;20052;-64
2021/06/14 05:54:38;;;;;;;6.45;2.70;;;;;;;18.97;51.93;100158.16;4917078;29;20473;-65
2021/06/14 05:57:08;;;;;;;6.83;3.13;;;;;;;19.13;51.63;100169.78;4917480;29;20111;-63
2021/06/14 05:59:39;;;;;;;7.93;2.88;;;;;;;19.18;51.29;100177.41;4917253;29;20282;-63
2021/06/14 06:02:09;;;;;;;5.13;2.63;;;;;;;19.22;51.11;100179.00;4917228;29;20410;-65
2021/06/14 06:04:38;;;;;;;7.43;3.05;;;;;;;19.34;51.28;100164.00;4917053;29;20059;-65
2021/06/14 06:07:07;;;;;;;7.47;3.20;;;;;;;19.55;51.03;100159.97;4917366;29;20048;-65
2021/06/14 06:09:36;;;;;;;4.22;2.55;;;;;;;19.66;49.87;100163.09;4917141;29;20071;-65
2021/06/14 06:12:07;;;;;;;5.20;3.00;;;;;;;19.70;50.05;100171.63;4917059;29;20100;-62
2021/06/14 06:14:36;;;;;;;10.98;3.13;;;;;;;19.71;50.14;100168.13;4917073;29;20087;-65
2021/06/14 06:17:07;;;;;;;5.72;3.10;;;;;;;19.73;49.92;100162.00;4917348;29;20092;-63
2021/06/14 06:19:36;;;;;;;7.93;3.33;;;;;;;19.82;49.83;100166.91;4917116;29;20086;-62
2021/06/14 06:22:05;;;;;;;7.35;2.55;;;;;;;19.74;49.74;100153.38;4917450;29;20107;-65
2021/06/14 06:24:38;;;;;;;9.15;3.00;;;;;;;19.54;50.21;100154.84;4903813;29;20055;-60
2021/06/14 06:27:08;;;;;;;10.55;4.63;;;;;;;19.78;49.73;100165.31;4920810;29;20058;-64
2021/06/14 06:29:37;;;;;;;14.43;4.25;;;;;;;19.90;49.52;100159.75;4920532;29;20514;-65
2021/06/14 06:32:09;;;;;;;5.57;2.75;;;;;;;19.93;49.78;100159.66;4920869;29;20048;-66
2021/06/14 06:34:38;;;;;;;11.07;3.10;;;;;;;20.02;49.54;100161.97;4920391;29;20080;-65
2021/06/14 06:37:07;;;;;;;8.77;3.47;;;;;;;20.21;48.68;100153.59;4920370;29;20048;-63
2021/06/14 06:39:36;;;;;;;6.55;3.13;;;;;;;20.43;48.21;100160.66;4920187;29;20131;-64
2021/06/14 06:42:07;;;;;;;5.38;2.50;;;;;;;20.47;47.42;100166.59;4920362;29;20046;-65
2021/06/14 06:44:38;;;;;;;6.60;2.47;;;;;;;20.48;47.01;100163.09;4920365;29;20414;-60
2021/06/14 06:47:09;;;;;;;7.03;2.42;;;;;;;20.50;46.54;100161.31;4920370;29;20048;-61
2021/06/14 06:49:38;;;;;;;5.35;2.53;;;;;;;20.58;45.62;100164.50;4920269;29;20490;-60
2021/06/14 06:52:08;;;;;;;6.22;2.50;;;;;;;20.54;45.54;100158.56;4903200;29;20398;-62
2021/06/14 06:54:37;;;;;;;;;;;;;;;20.46;44.88;100162.31;4920411;29;20108;-60
2021/06/14 06:57:08;;;;;;;6.78;3.15;;;;;;;20.65;45.35;100160.78;4920394;29;20028;-61
2021/06/14 06:59:37;;;;;;;9.80;4.30;;;;;;;20.75;45.26;100167.38;4920215;29;20048;-62
2021/06/14 07:02:06;;;;;;;6.57;2.40;;;;;;;20.75;44.68;100158.72;4920021;29;20502;-61
2021/06/14 07:04:37;;;;;;;5.13;2.28;;;;;;;20.65;44.38;100155.59;4919745;29;20514;-61
2021/06/14 07:07:07;;;;;;;5.32;2.40;;;;;;;20.55;44.61;100164.59;4919953;29;20052;-63
2021/06/14 07:09:36;;;;;;;5.90;2.50;;;;;;;20.69;44.68;100162.38;4919826;29;20048;-62
2021/06/14 07:12:07;;;;;;;8.13;2.70;;;;;;;20.74;44.65;100155.28;4919772;29;20044;-60
2021/06/14 07:14:36;;;;;;;5.40;2.25;;;;;;;20.85;44.31;100155.75;4919729;29;20052;-61
2021/06/14 07:17:05;;;;;;;6.55;2.10;;;;;;;20.85;43.93;100153.16;4919929;29;20063;-63
2021/06/14 07:19:37;;;;;;;6.45;2.53;;;;;;;20.84;43.95;100150.63;4919620;29;20075;-61
2021/06/14 07:22:07;;;;;;;6.45;2.40;;;;;;;20.94;43.88;100158.03;4919841;29;20494;-63
2021/06/14 07:24:36;;;;;;;5.05;2.25;;;;;;;21.09;43.58;100157.50;4919575;29;20406;-63
2021/06/14 07:27:06;;;;;;;7.40;2.67;;;;;;;21.18;43.59;100152.00;4919404;29;20414;-60
2021/06/14 07:29:35;;;;;;;4.97;2.42;;;;;;;21.34;43.78;100160.91;4919493;29;20104;-63
2021/06/14 07:32:05;;;;;;;11.13;3.75;;;;;;;21.51;43.53;100160.28;4919440;29;20052;-63
2021/06/14 07:34:35;;;;;;;4.25;1.90;;;;;;;21.52;42.94;100161.16;4919181;29;20063;-63
2021/06/14 07:37:05;;;;;;;6.20;2.33;;;;;;;21.52;42.94;100166.34;4919433;29;20064;-61
2021/06/14 07:39:35;;;;;;;4.55;2.17;;;;;;;21.59;43.14;100165.19;4919277;29;20550;-61
2021/06/14 07:42:04;;;;;;;7.40;2.55;;;;;;;21.71;42.65;100165.59;4919184;29;20123;-62
2021/06/14 07:44:33;;;;;;;6.20;2.13;;;;;;;21.89;42.22;100179.63;4918958;29;20471;-60
2021/06/14 07:47:02;;;;;;;6.90;2.28;;;;;;;21.86;41.78;100177.16;4918966;29;20119;-61
2021/06/14 07:49:32;;;;;;;7.13;2.33;;;;;;;21.80;41.52;100179.97;4918874;29;20040;-61
2021/06/14 07:52:00;;;;;;;4.60;2.10;;;;;;;21.77;41.81;100180.06;4919094;29;20052;-61
2021/06/14 07:54:31;;;;;;;5.05;2.17;;;;;;;21.83;41.68;100177.25;4918968;29;20562;-61
2021/06/14 07:57:01;;;;;;;6.13;2.22;;;;;;;21.78;41.51;100174.00;4918986;29;20078;-62
2021/06/14 07:59:30;;;;;;;6.40;2.35;;;;;;;21.95;41.09;100171.63;4918889;29;20064;-61
2021/06/14 08:02:00;;;;;;;4.72;2.15;;;;;;;22.00;40.90;100167.09;4918820;29;20112;-63
2021/06/14 08:04:35;;;;;;;8.82;2.78;;;;;;;22.08;40.71;100175.41;4918866;29;20070;-63
2021/06/14 08:07:05;;;;;;;4.68;2.20;;;;;;;22.27;41.29;100172.91;4918908;29;20056;-63
2021/06/14 08:09:35;;;;;;;6.18;2.78;;;;;;;22.33;40.49;100168.34;4918954;29;20127;-63
2021/06/14 08:12:05;;;;;;;3.78;1.98;;;;;;;22.47;40.17;100176.41;4918609;29;20051;-61
2021/06/14 08:14:35;;;;;;;5.97;2.30;;;;;;;22.56;40.19;100181.22;4919040;29;20100;-63
2021/06/14 08:17:04;;;;;;;12.98;2.50;;;;;;;22.62;40.08;100181.03;4918596;29;20115;-61
2021/06/14 08:19:42;;;;;;;;;;;;;;;22.53;40.45;100176.13;4919000;29;20076;-62
2021/06/14 08:27:32;;;;;;;7.13;2.15;;;;;;;22.44;39.81;100186.09;4918471;29;20062;-64
2021/06/14 08:30:02;;;;;;;4.07;2.17;;;;;;;22.59;39.41;100186.31;4918364;29;20062;-63
2021/06/14 08:32:31;;;;;;;6.43;2.45;;;;;;;22.41;39.93;100186.22;4918338;29;20058;-62
2021/06/14 08:35:00;;;;;;;5.22;2.67;;;;;;;22.28;39.98;100180.66;4918199;29;20104;-60
2021/06/14 08:37:29;;;;;;;5.65;2.30;;;;;;;22.54;40.42;100175.25;4918681;29;20123;-64
2021/06/14 08:39:59;;;;;;;4.05;2.30;;;;;;;22.67;40.56;100173.00;4918202;29;20044;-62
2021/06/14 08:42:29;;;;;;;7.32;2.38;;;;;;;22.58;40.02;100179.41;4917227;29;20048;-63
2021/06/14 08:44:58;;;;;;;8.65;2.55;;;;;;;22.84;39.59;100169.69;4917314;29;20048;-62
2021/06/14 08:47:29;;;;;;;8.25;2.45;;;;;;;22.95;39.12;100172.66;4918021;29;20467;-62
2021/06/14 08:50:00;;;;;;;6.22;3.05;;;;;;;23.21;39.42;100167.16;4918388;29;20044;-62
2021/06/14 08:52:29;;;;;;;4.35;2.20;;;;;;;23.40;38.46;100160.22;4917915;29;20052;-59
2021/06/14 08:54:59;;;;;;;6.28;2.20;;;;;;;23.44;38.28;100164.41;4917980;29;20052;-60
2021/06/14 08:57:29;;;;;;;6.97;2.50;;;;;;;23.54;38.31;100173.47;4918080;29;20108;-64
2021/06/14 08:59:57;;;;;;;6.15;2.38;;;;;;;23.56;37.65;100170.81;4917687;29;20403;-64
2021/06/14 09:02:26;;;;;;;6.13;2.30;;;;;;;23.62;37.62;100158.34;4917923;29;20115;-63
2021/06/14 09:04:56;;;;;;;6.47;3.00;;;;;;;23.95;37.47;100164.56;4917465;29;20044;-62
2021/06/14 09:07:25;;;;;;;9.48;3.05;;;;;;;24.07;37.25;100146.69;4917665;29;20048;-65
2021/06/14 09:09:54;;;;;;;5.05;2.35;;;;;;;24.04;36.76;100155.47;4917496;29;20072;-62
2021/06/14 09:12:25;;;;;;;4.85;2.20;;;;;;;23.98;36.78;100164.44;4917273;29;20044;-64
2021/06/14 09:14:55;;;;;;;19.33;4.57;;;;;;;24.19;37.61;100148.69;4917568;29;20074;-64
2021/06/14 09:17:24;;;;;;;;;;;;;;;24.14;37.35;100151.50;4917963;29;20059;-64
2021/06/14 09:19:56;;;;;;;7.57;2.42;;;;;;;23.88;37.41;100144.91;4917694;29;19974;-64
2021/06/14 09:22:26;;;;;;;6.90;2.42;;;;;;;24.17;36.97;100142.69;4917630;29;20183;-65
2021/06/14 09:25:00;;;;;;;6.30;2.53;;;;;;;24.41;36.79;100136.25;4917655;29;20557;-64
2021/06/14 09:27:33;;;;;;;10.50;3.00;;;;;;;24.55;35.97;100128.59;4900651;29;20067;-64
2021/06/14 09:30:15;;;;;;;6.43;2.40;;;;;;;24.27;35.56;100136.97;4917825;29;20128;-60
2021/06/14 09:32:58;;;;;;;5.00;2.38;;;;;;;24.37;35.70;100135.59;4917496;29;20051;-61
2021/06/14 09:35:30;;;;;;;6.55;2.80;;;;;;;24.47;36.06;100138.59;4917386;29;20048;-64
2021/06/14 09:38:02;;;;;;;5.53;2.55;;;;;;;24.41;35.46;100136.25;4917351;29;20414;-62
2021/06/14 09:40:35;;;;;;;4.97;2.20;;;;;;;24.22;34.72;100140.72;4917236;29;20079;-62
2021/06/14 09:43:08;;;;;;;9.95;3.15;;;;;;;24.19;34.51;100135.63;4917356;29;20067;-64
2021/06/14 09:45:41;;;;;;;7.30;2.80;;;;;;;24.05;34.57;100127.59;4917347;29;20111;-62
2021/06/14 09:48:18;;;;;;;5.78;2.60;;;;;;;24.02;34.85;100132.06;4917630;29;20040;-62
2021/06/14 09:50:49;;;;;;;4.25;2.03;;;;;;;24.13;34.50;100130.72;4917539;29;20406;-64
2021/06/14 09:53:20;;;;;;;6.93;2.13;;;;;;;24.13;34.38;100122.91;4917293;29;20056;-62
2021/06/14 09:55:50;;;;;;;5.20;2.45;;;;;;;24.20;34.68;100121.69;4917140;29;20146;-61
2021/06/14 09:58:23;;;;;;;4.80;2.72;;;;;;;24.28;34.72;100119.53;4921222;29;20048;-62
2021/06/14 10:00:55;;;;;;;4.32;2.40;;;;;;;24.37;34.69;100106.03;4921270;29;20459;-64
2021/06/14 10:03:27;;;;;;;5.95;2.67;;;;;;;24.64;34.99;100117.69;4921153;29;20087;-64
2021/06/14 10:05:57;;;;;;;5.97;2.55;;;;;;;24.74;34.41;100111.03;4921038;29;20048;-61
2021/06/14 10:08:29;;;;;;;4.30;2.40;;;;;;;24.75;34.28;100099.69;4921008;29;20107;-64
2021/06/14 10:11:10;;;;;;;4.03;2.20;;;;;;;25.06;34.48;100094.56;4920933;29;20079;-62
2021/06/14 10:13:42;;;;;;;5.28;2.28;;;;;;;24.94;34.32;100091.75;4920812;29;20123;-61
2021/06/14 10:16:13;;;;;;;4.75;2.45;;;;;;;24.58;34.02;100092.75;4920609;29;20451;-63
2021/06/14 10:18:44;;;;;;;7.20;2.22;;;;;;;24.63;34.30;100090.72;4920650;29;20401;-62
2021/06/14 10:21:25;;;;;;;5.68;2.20;;;;;;;24.82;33.88;100081.97;4920604;29;20474;-64
2021/06/14 10:23:56;;;;;;;3.75;2.00;;;;;;;24.59;33.23;100075.31;4920623;29;20084;-61
2021/06/14 10:26:25;;;;;;;4.50;2.20;;;;;;;24.35;33.71;100074.81;4920495;29;20052;-61
2021/06/14 10:28:56;;;;;;;7.28;2.47;;;;;;;24.63;34.00;100071.59;4920532;29;20079;-65
2021/06/14 10:31:26;;;;;;;4.50;2.60;;;;;;;24.85;33.54;100068.75;4920588;29;20555;-65
2021/06/14 10:33:56;;;;;;;3.97;2.13;;;;;;;24.91;33.17;100061.41;4920820;29;20040;-62
2021/06/14 10:36:27;;;;;;;5.05;2.25;;;;;;;24.69;32.94;100057.41;4903642;29;20055;-64
2021/06/14 10:38:58;;;;;;;5.40;2.53;;;;;;;24.93;33.16;100066.59;4920466;29;20107;-64
2021/06/14 10:41:27;;;;;;;6.78;2.42;;;;;;;25.32;32.85;100082.69;4920487;29;20056;-60
2021/06/14 10:43:57;;;;;;;3.95;2.30;;;;;;;25.21;32.13;100072.84;4920576;29;20044;-62
2021/06/14 10:46:27;;;;;;;9.95;2.97;;;;;;;24.83;32.75;100071.47;4920334;29;20068;-64
2021/06/14 10:49:00;;;;;;;4.60;2.40;;;;;;;24.49;34.79;100067.13;4920217;29;20119;-64
2021/06/14 10:51:32;;;;;;;4.90;2.55;;;;;;;24.88;35.32;100066.84;4920285;29;20048;-65
2021/06/14 10:54:09;;;;;;;4.38;2.50;;;;;;;25.00;36.19;100074.00;4920553;29;20068;-64
2021/06/14 10:56:39;;;;;;;4.90;2.25;;;;;;;25.36;35.53;100070.31;4920090;29;20059;-65
2021/06/14 10:59:14;;;;;;;6.63;2.42;;;;;;;25.63;34.05;100060.97;4920408;29;20447;-65
2021/06/14 11:01:45;;;;;;;6.30;2.53;;;;;;;25.74;33.25;100053.38;4920191;29;20086;-60
2021/06/14 11:04:25;;;;;;;5.63;2.13;;;;;;;24.71;33.51;100051.19;4919779;29;20052;-64
2021/06/14 11:06:57;;;;;;;4.70;2.20;;;;;;;24.85;33.89;100051.31;4920157;29;20056;-64
2021/06/14 11:09:37;;;;;;;5.30;2.10;;;;;;;24.88;32.78;100048.56;4919151;29;20491;-61
2021/06/14 11:12:08;;;;;;;5.55;2.20;;;;;;;24.99;32.85;100056.66;4920064;29;20058;-64
2021/06/14 11:14:44;;;;;;;7.82;2.58;;;;;;;25.23;32.83;100055.31;4919931;29;20079;-64
2021/06/14 11:17:20;;;;;;;5.47;2.00;;;;;;;25.45;31.78;100043.69;4919694;29;20469;-61
2021/06/14 11:19:52;;;;;;;5.97;1.98;;;;;;;25.31;31.92;100032.19;4920222;29;20060;-61
2021/06/14 11:22:21;;;;;;;5.20;2.25;;;;;;;25.25;31.86;100032.53;4919714;29;20048;-64
2021/06/14 11:24:51;;;;;;;8.32;2.20;;;;;;;25.44;31.82;100018.44;4926227;29;20056;-62
2021/06/14 11:27:20;;;;;;;5.82;2.20;;;;;;;25.72;32.10;100032.50;4938902;29;20059;-63
2021/06/14 11:29:58;;;;;;;4.85;2.05;;;;;;;25.87;31.63;100021.19;4938717;29;20114;-62
2021/06/14 11:32:39;;;;;;;4.57;2.05;;;;;;;25.85;31.22;100011.72;4939188;29;20091;-63
2021/06/14 11:35:14;;;;;;;4.43;2.50;;;;;;;26.03;32.23;100013.28;4938482;29;20565;-63
2021/06/14 11:37:46;;;;;;;5.75;2.38;;;;;;;26.48;34.32;100013.19;4938438;29;20060;-65
2021/06/14 11:40:18;;;;;;;5.28;1.92;;;;;;;26.23;33.67;100005.13;4938801;29;20446;-61
2021/06/14 11:42:50;;;;;;;4.25;2.20;;;;;;;26.27;32.63;100004.03;4938410;29;20062;-65
2021/06/14 11:45:28;;;;;;;6.00;2.15;;;;;;;26.50;32.60;100011.31;4938695;29;20494;-60
2021/06/14 11:48:03;;;;;;;8.48;3.33;;;;;;;26.01;32.39;100009.91;4938933;29;20134;-65
2021/06/14 11:50:36;;;;;;;3.85;2.00;;;;;;;26.19;31.58;100008.00;4938372;29;20114;-64
2021/06/14 11:53:08;;;;;;;6.00;2.70;;;;;;;26.41;31.48;100004.03;4938300;29;20067;-62